createdAt,value
2023-04-23T00:00:46.698Z,30.60
2023-04-23T00:03:36.475Z,28.80
2023-04-23T00:06:10.260Z,27.20
2023-04-23T00:08:42.024Z,28.00
2023-04-23T00:11:10.433Z,28.00
2023-04-23T00:13:38.837Z,29.50
2023-04-23T00:16:07.562Z,30.10
2023-04-23T00:18:35.426Z,25.50
2023-04-23T00:21:03.481Z,26.90
2023-04-23T00:23:31.372Z,29.70
2023-04-23T00:25:59.097Z,28.00
2023-04-23T00:28:26.946Z,29.30
2023-04-23T00:30:54.904Z,27.70
2023-04-23T00:33:23.017Z,30.00
2023-04-23T00:35:50.895Z,29.60
2023-04-23T00:38:20.993Z,31.40
2023-04-23T00:40:49.276Z,30.00
2023-04-23T00:43:17.774Z,30.80
2023-04-23T00:45:46.020Z,31.30
2023-04-23T00:48:13.912Z,30.60
2023-04-23T00:50:42.336Z,30.60
2023-04-23T00:53:10.267Z,31.50
2023-04-23T00:55:38.156Z,30.90
2023-04-23T00:58:06.932Z,27.70
2023-04-23T01:00:41.293Z,26.40
2023-04-23T01:03:09.319Z,27.40
2023-04-23T01:05:37.194Z,25.20
2023-04-23T01:08:05.045Z,25.50
2023-04-23T01:10:33.041Z,24.70
2023-04-23T01:13:00.933Z,25.90
2023-04-23T01:15:28.750Z,24.90
2023-04-23T01:17:58.485Z,26.80
2023-04-23T01:20:26.673Z,25.40
2023-04-23T01:22:54.712Z,26.90
2023-04-23T01:25:22.583Z,26.90
2023-04-23T01:27:50.830Z,25.90
2023-04-23T01:30:19.342Z,26.90
2023-04-23T01:32:47.557Z,25.70
2023-04-23T01:35:15.618Z,25.60
2023-04-23T01:37:44.146Z,26.90
2023-04-23T01:40:12.323Z,26.80
2023-04-23T01:42:41.113Z,25.90
2023-04-23T01:45:10.153Z,27.80
2023-04-23T01:47:38.155Z,27.20
2023-04-23T01:50:07.051Z,28.40
2023-04-23T01:52:34.925Z,29.50
2023-04-23T01:55:02.947Z,25.30
2023-04-23T01:57:30.736Z,27.00
2023-04-23T02:00:08.850Z,25.70
2023-04-23T02:02:38.408Z,53.30
2023-04-23T02:05:16.650Z,65.10
2023-04-23T02:07:47.242Z,34.80
2023-04-23T02:10:15.896Z,26.50
2023-04-23T02:12:44.763Z,24.80
2023-04-23T02:15:14.232Z,24.50
2023-04-23T02:17:42.319Z,24.60
2023-04-23T02:20:11.494Z,23.30
2023-04-23T02:22:42.458Z,23.80
2023-04-23T02:25:11.066Z,24.40
2023-04-23T02:27:39.022Z,24.60
2023-04-23T02:30:09.132Z,24.70
2023-04-23T02:32:38.149Z,24.50
2023-04-23T02:35:06.781Z,24.10
2023-04-23T02:37:34.611Z,25.60
2023-04-23T02:40:03.887Z,24.60
2023-04-23T02:42:31.710Z,23.60
2023-04-23T02:44:59.634Z,23.60
2023-04-23T02:47:27.517Z,24.20
2023-04-23T02:49:55.598Z,24.20
2023-04-23T02:52:23.447Z,23.90
2023-04-23T02:54:51.151Z,24.00
2023-04-23T02:57:19.258Z,25.30
2023-04-23T02:59:47.164Z,24.30
2023-04-23T03:02:15.054Z,23.20
2023-04-23T03:04:43.358Z,21.20
2023-04-23T03:07:13.332Z,22.70
2023-04-23T03:09:42.348Z,23.90
2023-04-23T03:12:10.294Z,22.90
2023-04-23T03:14:38.206Z,24.20
2023-04-23T03:17:06.460Z,23.40
2023-04-23T03:19:34.301Z,23.70
2023-04-23T03:22:05.748Z,24.70
2023-04-23T03:24:35.089Z,24.60
2023-04-23T03:27:02.931Z,22.90
2023-04-23T03:29:30.780Z,22.30
2023-04-23T03:31:58.634Z,23.90
2023-04-23T03:34:26.472Z,24.40
2023-04-23T03:36:54.232Z,24.20
2023-04-23T03:39:22.025Z,26.00
2023-04-23T03:41:50.291Z,25.60
2023-04-23T03:44:18.405Z,26.70
2023-04-23T03:46:46.426Z,27.40
2023-04-23T03:49:14.266Z,25.70
2023-04-23T03:51:42.089Z,25.40
2023-04-23T03:54:09.904Z,27.20
2023-04-23T03:56:37.763Z,28.90
2023-04-23T03:59:05.629Z,28.10
2023-04-23T04:01:36.234Z,27.10
2023-04-23T04:04:04.408Z,28.70
2023-04-23T04:06:33.689Z,29.50
2023-04-23T04:09:01.690Z,27.80
2023-04-23T04:11:29.446Z,27.10
2023-04-23T04:13:57.218Z,27.00
2023-04-23T04:16:25.231Z,27.50
2023-04-23T04:18:54.442Z,27.40
2023-04-23T04:21:24.134Z,27.00
2023-04-23T04:23:51.909Z,26.80
2023-04-23T04:26:19.677Z,25.50
2023-04-23T04:28:47.502Z,25.40
2023-04-23T04:31:16.155Z,26.00
2023-04-23T04:33:46.397Z,25.30
2023-04-23T04:36:14.587Z,26.40
2023-04-23T04:38:43.931Z,24.30
2023-04-23T04:41:11.927Z,23.70
2023-04-23T04:43:41.452Z,24.90
2023-04-23T04:46:11.762Z,22.80
2023-04-23T04:48:39.545Z,23.80
2023-04-23T04:51:07.724Z,23.70
2023-04-23T04:53:36.130Z,23.30
2023-04-23T04:56:04.292Z,23.50
2023-04-23T04:58:32.092Z,22.10
2023-04-23T05:01:01.461Z,22.70
2023-04-23T05:03:29.654Z,23.00
2023-04-23T05:05:59.005Z,23.90
2023-04-23T05:08:26.992Z,22.60
2023-04-23T05:10:54.754Z,23.80
2023-04-23T05:13:22.622Z,23.40
2023-04-23T05:15:50.516Z,22.20
2023-04-23T05:18:18.486Z,21.00
2023-04-23T05:20:46.340Z,20.10
2023-04-23T05:23:14.418Z,19.70
2023-04-23T05:25:42.350Z,19.50
2023-04-23T05:28:10.825Z,18.20
2023-04-23T05:30:38.757Z,16.50
2023-04-23T05:33:06.884Z,17.00
2023-04-23T05:35:34.980Z,16.00
2023-04-23T05:38:03.293Z,15.50
2023-04-23T05:40:31.175Z,14.40
2023-04-23T05:42:59.654Z,15.60
2023-04-23T05:45:27.852Z,13.50
2023-04-23T05:47:55.905Z,13.90
2023-04-23T05:50:24.045Z,13.20
2023-04-23T05:52:52.077Z,13.20
2023-04-23T05:55:21.216Z,12.30
2023-04-23T05:57:50.059Z,13.10
2023-04-23T06:00:18.137Z,13.20
2023-04-23T06:02:47.992Z,12.50
2023-04-23T06:05:16.440Z,11.90
2023-04-23T06:07:44.518Z,11.90
2023-04-23T06:10:12.868Z,12.80
2023-04-23T06:12:42.433Z,11.90
2023-04-23T06:15:11.444Z,11.60
2023-04-23T06:17:39.442Z,11.30
2023-04-23T06:20:09.107Z,10.60
2023-04-23T06:22:37.227Z,11.20
2023-04-23T06:25:05.870Z,10.30
2023-04-23T06:27:34.088Z,10.40
2023-04-23T06:30:02.201Z,9.70
2023-04-23T06:32:30.177Z,10.10
2023-04-23T06:35:01.877Z,9.90
2023-04-23T06:37:33.694Z,9.80
2023-04-23T06:40:01.753Z,10.00
2023-04-23T06:42:31.803Z,10.10
2023-04-23T06:45:05.932Z,9.50
2023-04-23T06:47:34.520Z,8.70
2023-04-23T06:50:03.153Z,9.70
2023-04-23T06:52:31.456Z,9.00
2023-04-23T06:54:59.428Z,8.60
2023-04-23T06:57:29.052Z,9.30
2023-04-23T06:59:57.100Z,9.50
2023-04-23T07:02:25.031Z,9.50
2023-04-23T07:04:53.017Z,8.60
2023-04-23T07:07:22.400Z,8.40
2023-04-23T07:09:51.367Z,8.90
2023-04-23T07:13:44.099Z,8.60
2023-04-23T07:16:12.300Z,8.40
2023-04-23T07:18:40.243Z,8.30
2023-04-23T07:21:08.124Z,8.20
2023-04-23T07:23:36.133Z,8.30
2023-04-23T07:26:04.416Z,7.90
2023-04-23T07:28:33.044Z,7.30
2023-04-23T07:31:02.195Z,7.10
2023-04-23T07:33:30.183Z,7.90
2023-04-23T07:35:58.258Z,7.50
2023-04-23T07:38:26.210Z,6.80
2023-04-23T07:40:54.231Z,6.90
2023-04-23T07:43:24.490Z,6.30
2023-04-23T07:45:52.467Z,7.00
2023-04-23T07:48:20.788Z,7.10
2023-04-23T07:50:48.818Z,6.20
2023-04-23T07:53:17.278Z,6.70
2023-04-23T07:55:45.275Z,6.80
2023-04-23T07:58:13.263Z,6.10
2023-04-23T08:00:41.062Z,6.30
2023-04-23T08:03:09.111Z,5.20
2023-04-23T08:05:38.949Z,6.40
2023-04-23T08:08:08.524Z,5.90
2023-04-23T08:10:36.461Z,5.60
2023-04-23T08:13:04.407Z,5.60
2023-04-23T08:15:32.396Z,5.70
2023-04-23T08:18:00.872Z,5.40
2023-04-23T08:20:28.734Z,5.00
2023-04-23T08:22:56.780Z,5.30
2023-04-23T08:25:24.665Z,5.30
2023-04-23T08:27:52.715Z,4.80
2023-04-23T08:30:20.936Z,5.20
2023-04-23T08:32:55.829Z,5.00
2023-04-23T08:35:24.794Z,5.00
2023-04-23T08:37:53.075Z,5.40
2023-04-23T08:40:21.136Z,5.00
2023-04-23T08:43:07.178Z,6.10
2023-04-23T08:45:41.584Z,5.00
2023-04-23T08:48:10.567Z,5.20
2023-04-23T08:50:39.454Z,4.70
2023-04-23T08:53:07.942Z,5.10
2023-04-23T08:55:36.711Z,4.40
2023-04-23T08:58:07.655Z,5.40
2023-04-23T09:00:35.671Z,4.90
2023-04-23T09:03:04.379Z,4.40
2023-04-23T09:05:32.467Z,4.10
2023-04-23T09:08:00.459Z,3.80
2023-04-23T09:10:29.074Z,4.10
2023-04-23T09:12:56.928Z,4.60
2023-04-23T09:15:24.769Z,4.60
2023-04-23T09:17:52.560Z,4.40
2023-04-23T09:20:20.907Z,4.00
2023-04-23T09:22:52.719Z,4.00
2023-04-23T09:25:23.451Z,4.00
2023-04-23T09:27:52.870Z,3.70
2023-04-23T09:30:20.957Z,4.10
2023-04-23T09:32:49.893Z,4.30
2023-04-23T09:35:20.596Z,4.00
2023-04-23T09:37:52.551Z,4.10
2023-04-23T09:42:54.613Z,3.80
2023-04-23T09:45:25.217Z,4.10
2023-04-23T09:47:55.986Z,4.30
2023-04-23T09:50:41.838Z,3.60
2023-04-23T09:53:10.805Z,4.00
2023-04-23T09:55:40.781Z,3.80
2023-04-23T09:58:15.746Z,4.50
2023-04-23T10:00:43.963Z,4.20
2023-04-23T10:03:12.451Z,4.40
2023-04-23T10:08:14.723Z,3.60
2023-04-23T10:10:57.406Z,3.70
2023-04-23T10:13:28.633Z,4.00
2023-04-23T10:16:07.026Z,4.10
2023-04-23T10:18:38.996Z,3.80
2023-04-23T10:21:07.261Z,4.00
2023-04-23T10:23:37.091Z,4.20
2023-04-23T10:26:06.246Z,3.50
2023-04-23T10:28:34.765Z,3.80
2023-04-23T10:31:04.222Z,4.00
2023-04-23T10:33:39.873Z,3.80
2023-04-23T10:36:14.221Z,3.90
2023-04-23T10:38:56.834Z,3.50
2023-04-23T10:41:29.544Z,4.00
2023-04-23T10:43:57.912Z,3.70
2023-04-23T10:46:33.470Z,3.00
2023-04-23T10:49:15.176Z,3.80
2023-04-23T10:52:17.937Z,3.90
2023-04-23T10:57:06.521Z,3.80
2023-04-23T10:59:39.506Z,3.40
2023-04-23T11:02:12.474Z,3.50
2023-04-23T11:04:55.154Z,4.10
2023-04-23T11:07:33.186Z,3.60
2023-04-23T11:10:15.253Z,4.10
2023-04-23T11:12:44.673Z,3.90
2023-04-23T11:15:15.718Z,3.80
2023-04-23T11:17:48.266Z,4.20
2023-04-23T11:20:21.973Z,3.80
2023-04-23T11:22:52.034Z,3.40
2023-04-23T11:25:22.668Z,3.80
2023-04-23T11:27:52.498Z,2.90
2023-04-23T11:30:26.462Z,3.30
2023-04-23T11:32:56.775Z,3.40
2023-04-23T11:35:30.667Z,3.70
2023-04-23T11:37:58.733Z,3.00
2023-04-23T11:40:29.930Z,3.20
2023-04-23T11:42:59.191Z,3.20
2023-04-23T11:45:29.319Z,3.20
2023-04-23T11:47:59.449Z,3.70
2023-04-23T11:50:33.770Z,3.80
2023-04-23T11:53:11.618Z,3.20
2023-04-23T11:55:43.966Z,3.50
2023-04-23T11:58:11.937Z,3.60
2023-04-23T12:00:39.782Z,3.50
2023-04-23T12:03:08.414Z,3.60
2023-04-23T12:05:43.680Z,3.50
2023-04-23T12:08:19.599Z,3.40
2023-04-23T12:10:55.023Z,3.80
2023-04-23T12:13:33.871Z,3.70
2023-04-23T12:16:04.599Z,3.50
2023-04-23T12:18:39.410Z,3.60
2023-04-23T12:21:14.857Z,3.70
2023-04-23T12:23:45.180Z,3.20
2023-04-23T12:26:15.706Z,3.30
2023-04-23T12:28:56.748Z,2.70
2023-04-23T12:31:28.259Z,3.00
2023-04-23T12:34:07.478Z,3.00
2023-04-23T12:36:38.094Z,2.90
2023-04-23T12:39:36.063Z,2.90
2023-04-23T12:42:09.976Z,2.70
2023-04-23T12:44:39.159Z,2.70
2023-04-23T12:47:09.642Z,3.00
2023-04-23T12:49:40.687Z,3.30
2023-04-23T12:52:10.447Z,3.00
2023-04-23T12:54:40.973Z,2.70
2023-04-23T12:57:12.831Z,3.30
2023-04-23T12:59:40.960Z,3.00
2023-04-23T13:02:10.341Z,3.10
2023-04-23T13:04:38.475Z,3.10
2023-04-23T13:07:06.285Z,2.90
2023-04-23T13:09:36.116Z,2.90
2023-04-23T13:12:04.194Z,3.00
2023-04-23T13:14:32.475Z,3.50
2023-04-23T13:17:00.555Z,3.10
2023-04-23T13:19:28.518Z,3.20
2023-04-23T13:21:56.407Z,2.90
2023-04-23T13:24:24.280Z,3.20
2023-04-23T13:26:52.053Z,3.10
2023-04-23T13:29:20.002Z,2.70
2023-04-23T13:31:47.955Z,3.00
2023-04-23T13:34:16.184Z,3.10
2023-04-23T13:36:44.053Z,2.90
2023-04-23T13:39:14.275Z,3.30
2023-04-23T13:41:42.572Z,2.90
2023-04-23T13:44:10.512Z,2.90
2023-04-23T13:56:55.628Z,3.00
2023-04-23T13:59:25.914Z,3.80
2023-04-23T14:01:54.282Z,3.90
2023-04-23T14:04:27.113Z,3.60
2023-04-23T14:06:57.148Z,3.50
2023-04-23T14:09:25.340Z,4.20
2023-04-23T14:11:53.250Z,4.10
2023-04-23T14:14:21.849Z,4.50
2023-04-23T14:16:49.738Z,4.10
2023-04-23T14:19:18.290Z,4.60
2023-04-23T14:21:48.699Z,4.60
2023-04-23T14:24:24.774Z,4.80
2023-04-23T14:26:52.913Z,4.20
2023-04-23T14:29:29.385Z,5.10
2023-04-23T14:31:57.288Z,5.30
2023-04-23T14:34:25.357Z,4.60
2023-04-23T14:36:53.790Z,5.10
2023-04-23T14:39:26.852Z,4.90
2023-04-23T14:41:54.960Z,5.30
2023-04-23T14:44:29.174Z,5.30
2023-04-23T14:46:57.176Z,5.30
2023-04-23T14:49:25.440Z,4.80
2023-04-23T14:51:58.185Z,5.10
2023-04-23T14:54:26.183Z,4.90
2023-04-23T14:56:54.045Z,4.80
2023-04-23T14:59:23.768Z,4.70
2023-04-23T15:01:51.964Z,4.60
2023-04-23T15:04:20.206Z,4.70
2023-04-23T15:06:48.244Z,5.00
2023-04-23T15:09:16.162Z,5.50
2023-04-23T15:11:44.416Z,4.70
2023-04-23T15:14:27.423Z,4.70
2023-04-23T15:16:55.433Z,4.80
2023-04-23T15:19:23.575Z,7.90
2023-04-23T15:21:51.350Z,8.70
2023-04-23T15:24:19.218Z,7.90
2023-04-23T15:26:47.224Z,7.10
2023-04-23T15:29:15.147Z,6.30
2023-04-23T15:31:43.329Z,6.40
2023-04-23T15:34:12.343Z,9.20
2023-04-23T15:36:40.463Z,10.10
2023-04-23T15:39:08.771Z,10.30
2023-04-23T15:41:39.438Z,9.20
2023-04-23T15:44:11.741Z,8.70
2023-04-23T15:46:40.099Z,8.80
2023-04-23T15:49:09.282Z,7.90
2023-04-23T15:51:37.938Z,6.40
2023-04-23T15:54:08.685Z,7.00
2023-04-23T15:56:37.105Z,6.60
2023-04-23T15:59:05.904Z,6.40
2023-04-23T16:01:33.805Z,7.00
2023-04-23T16:04:10.374Z,6.20
2023-04-23T16:06:40.090Z,5.60
2023-04-23T16:09:08.682Z,6.40
2023-04-23T16:11:38.425Z,6.00
2023-04-23T16:14:07.084Z,6.10
2023-04-23T16:16:35.376Z,7.20
2023-04-23T16:19:03.358Z,7.20
2023-04-23T16:21:32.274Z,7.50
2023-04-23T16:24:00.373Z,7.80
2023-04-23T16:26:29.176Z,8.90
2023-04-23T16:29:16.659Z,8.80
2023-04-23T16:31:45.564Z,8.00
2023-04-23T16:34:13.504Z,7.90
2023-04-23T16:36:42.307Z,16.40
2023-04-23T16:39:11.573Z,15.30
2023-04-23T16:41:39.740Z,15.30
2023-04-23T16:44:07.803Z,13.30
2023-04-23T16:46:35.920Z,12.90
2023-04-23T16:49:04.032Z,12.30
2023-04-23T16:51:35.454Z,10.80
2023-04-23T16:54:03.325Z,10.20
2023-04-23T16:56:31.192Z,10.20
2023-04-23T16:59:00.026Z,10.00
2023-04-23T17:01:27.946Z,10.60
2023-04-23T17:03:56.016Z,11.00
2023-04-23T17:06:30.484Z,11.10
2023-04-23T17:09:01.506Z,9.80
2023-04-23T17:11:30.906Z,10.40
2023-04-23T17:13:58.920Z,16.10
2023-04-23T17:16:26.964Z,15.00
2023-04-23T17:18:55.919Z,13.20
2023-04-23T17:21:24.834Z,11.40
2023-04-23T17:23:52.826Z,13.00
2023-04-23T17:26:20.852Z,13.70
2023-04-23T17:28:48.906Z,13.80
2023-04-23T17:31:18.020Z,11.30
2023-04-23T17:33:49.222Z,11.20
2023-04-23T17:36:19.788Z,11.40
2023-04-23T17:38:49.244Z,10.10
2023-04-23T17:41:17.794Z,10.90
2023-04-23T17:43:46.021Z,10.40
2023-04-23T17:46:14.038Z,11.40
2023-04-23T17:48:42.093Z,12.30
2023-04-23T17:51:10.051Z,12.50
2023-04-23T17:53:38.034Z,15.90
2023-04-23T17:56:06.483Z,18.00
2023-04-23T17:58:35.830Z,15.80
2023-04-23T18:01:04.134Z,15.50
2023-04-23T18:03:32.247Z,15.50
2023-04-23T18:06:00.424Z,13.40
2023-04-23T18:08:28.408Z,12.60
2023-04-23T18:10:56.736Z,11.20
2023-04-23T18:13:24.815Z,10.40
2023-04-23T18:15:52.683Z,10.00
2023-04-23T18:18:21.848Z,10.00
2023-04-23T18:20:52.218Z,11.00
2023-04-23T18:23:22.050Z,11.10
2023-04-23T18:25:50.130Z,11.40
2023-04-23T18:28:18.006Z,12.00
2023-04-23T18:30:46.072Z,13.40
2023-04-23T18:33:29.319Z,12.60
2023-04-23T18:36:05.079Z,10.40
2023-04-23T18:38:45.037Z,11.90
2023-04-23T18:41:12.991Z,10.20
2023-04-23T18:43:40.989Z,11.50
2023-04-23T18:46:08.875Z,11.80
2023-04-23T18:49:09.280Z,12.10
2023-04-23T18:51:44.958Z,12.70
2023-04-23T18:54:17.773Z,11.50
2023-04-23T18:56:45.654Z,13.40
2023-04-23T18:59:16.511Z,12.60
2023-04-23T19:01:46.399Z,13.50
2023-04-23T19:04:15.338Z,15.70
2023-04-23T19:06:43.423Z,17.60
2023-04-23T19:09:11.620Z,18.00
2023-04-23T19:11:40.406Z,17.20
2023-04-23T19:14:08.269Z,17.30
2023-04-23T19:16:38.933Z,15.70
2023-04-23T19:19:06.856Z,16.10
2023-04-23T19:21:34.783Z,14.90
2023-04-23T19:24:03.184Z,15.00
2023-04-23T19:26:31.135Z,15.70
2023-04-23T19:28:58.983Z,16.20
2023-04-23T19:31:29.673Z,15.30
2023-04-23T19:33:57.931Z,17.70
2023-04-23T19:36:26.591Z,19.00
2023-04-23T19:38:54.543Z,19.00
2023-04-23T19:41:22.386Z,17.80
2023-04-23T19:43:50.323Z,16.30
2023-04-23T19:46:18.259Z,16.20
2023-04-23T19:48:46.283Z,16.10
2023-04-23T19:51:14.149Z,16.10
2023-04-23T19:53:42.171Z,16.90
2023-04-23T19:56:13.191Z,19.50
2023-04-23T19:58:41.213Z,21.20
2023-04-23T20:01:10.771Z,23.60
2023-04-23T20:03:39.934Z,22.70
2023-04-23T20:06:07.867Z,22.30
2023-04-23T20:08:42.711Z,22.40
2023-04-23T20:11:10.928Z,23.00
2023-04-23T20:13:38.838Z,22.80
2023-04-23T20:16:08.233Z,21.50
2023-04-23T20:18:39.268Z,21.00
2023-04-23T20:21:09.278Z,19.20
2023-04-23T20:23:40.427Z,19.80
2023-04-23T20:26:08.442Z,20.60
2023-04-23T20:28:36.382Z,21.30
2023-04-23T20:31:06.184Z,24.20
2023-04-23T20:33:34.196Z,25.40
2023-04-23T20:36:02.157Z,27.90
2023-04-23T20:38:30.851Z,26.30
2023-04-23T20:41:02.731Z,25.90
2023-04-23T20:43:33.148Z,25.10
2023-04-23T20:46:02.594Z,26.60
2023-04-23T20:48:30.983Z,25.40
2023-04-23T20:50:59.626Z,27.00
2023-04-23T20:53:28.822Z,25.60
2023-04-23T20:55:57.234Z,28.00
2023-04-23T20:58:25.341Z,26.20
2023-04-23T21:00:54.278Z,24.70
2023-04-23T21:03:23.753Z,26.00
2023-04-23T21:05:51.757Z,26.80
2023-04-23T21:08:19.673Z,28.80
2023-04-23T21:10:47.457Z,28.40
2023-04-23T21:13:15.328Z,27.20
2023-04-23T21:15:43.358Z,30.20
2023-04-23T21:18:11.546Z,30.70
2023-04-23T21:20:39.543Z,29.20
2023-04-23T21:23:07.576Z,29.30
2023-04-23T21:25:35.590Z,31.70
2023-04-23T21:28:03.876Z,33.00
2023-04-23T21:30:56.985Z,35.50
2023-04-23T21:33:25.780Z,33.20
2023-04-23T21:35:54.117Z,31.70
2023-04-23T21:38:21.940Z,29.60
2023-04-23T21:40:49.761Z,31.60
2023-04-23T21:43:17.695Z,31.70
2023-04-23T21:45:45.778Z,30.30
2023-04-23T21:48:13.600Z,30.00
2023-04-23T21:50:41.396Z,27.80
2023-04-23T21:53:09.866Z,26.00
2023-04-23T21:55:37.721Z,24.70
2023-04-23T21:58:17.174Z,28.70
2023-04-23T22:00:46.070Z,32.60
2023-04-23T22:03:16.320Z,26.50
2023-04-23T22:06:04.528Z,25.50
2023-04-23T22:08:33.045Z,23.80
2023-04-23T22:11:01.058Z,26.50
2023-04-23T22:13:28.899Z,26.20
2023-04-23T22:15:57.576Z,30.20
2023-04-23T22:18:26.845Z,42.80
2023-04-23T22:20:54.789Z,47.10
2023-04-23T22:23:22.639Z,45.50
2023-04-23T22:25:50.616Z,38.30
2023-04-23T22:28:18.356Z,36.60
2023-04-23T22:30:46.207Z,31.20
2023-04-23T22:33:14.035Z,32.70
2023-04-23T22:35:41.846Z,41.40
2023-04-23T22:38:09.996Z,39.80
2023-04-23T22:40:37.867Z,28.20
2023-04-23T22:43:06.553Z,28.20
2023-04-23T22:45:34.410Z,29.00
2023-04-23T22:48:02.435Z,33.90
2023-04-23T22:50:30.921Z,31.70
2023-04-23T22:52:58.845Z,27.20
2023-04-23T22:55:26.703Z,27.50
2023-04-23T22:57:54.537Z,29.00
2023-04-23T23:00:22.449Z,26.70
2023-04-23T23:02:50.593Z,28.40
2023-04-23T23:05:18.724Z,29.10
2023-04-23T23:07:46.606Z,26.50
2023-04-23T23:10:14.396Z,26.50
2023-04-23T23:12:42.257Z,26.70
2023-04-23T23:15:10.769Z,26.80
2023-04-23T23:17:38.615Z,25.60
2023-04-23T23:20:08.972Z,24.00
2023-04-23T23:22:37.599Z,25.90
2023-04-23T23:25:07.533Z,26.00
2023-04-23T23:27:35.929Z,27.90
2023-04-23T23:30:07.880Z,24.80
2023-04-23T23:32:36.888Z,26.10
2023-04-23T23:35:05.265Z,25.10
2023-04-23T23:37:33.107Z,25.90
2023-04-23T23:40:00.977Z,22.50
2023-04-23T23:42:28.844Z,22.40
2023-04-23T23:44:56.628Z,19.60
2023-04-23T23:47:24.608Z,19.00
2023-04-23T23:49:54.663Z,20.30
2023-04-23T23:52:22.554Z,17.80
2023-04-23T23:54:51.294Z,18.80
2023-04-23T23:57:19.055Z,15.80
2023-04-23T23:59:47.169Z,15.40
